Time;durP1;ratioP1;P1;durP2;ratioP2;P2;SDS_P1;SDS_P2;PMS_P1;PMS_P2;Temp;Humidity;BMP_temperature;BMP_pressure;BME280_temperature;BME280_humidity;BME280_pressure;Samples;Min_cycle;Max_cycle;Signal;HPM_P1;HPM_P2
2022/09/10 00:05:11;;;;;;;0.40;0.40;;;;;;;;;;12546801;28;19908;-75
2022/09/10 00:11:14;;;;;;;0.70;0.50;;;;;;;;;;12546347;28;20060;-75
2022/09/10 00:17:15;;;;;;;1.25;0.90;;;;;;;;;;12546446;28;20045;-75
2022/09/10 00:23:18;;;;;;;0.80;0.73;;;;;;;;;;12546100;28;20420;-74
2022/09/10 00:29:20;;;;;;;0.85;0.68;;;;;;;;;;12546637;28;20037;-74
2022/09/10 00:35:23;;;;;;;1.00;1.00;;;;;;;;;;12545172;28;20072;-75
2022/09/10 00:41:25;;;;;;;0.80;0.60;;;;;;;;;;12511576;28;20479;-75
2022/09/10 00:47:37;;;;;;;1.73;0.75;;;;;;;;;;12511044;28;20044;-75
2022/09/10 00:53:39;;;;;;;1.73;0.82;;;;;;;;;;12527209;28;20048;-75
2022/09/10 00:59:44;;;;;;;0.88;0.88;;;;;;;;;;12544637;28;20041;-75
2022/09/10 01:05:46;;;;;;;0.70;0.70;;;;;;;;;;12526688;28;20041;-75
2022/09/10 01:11:48;;;;;;;0.60;0.60;;;;;;;;;;12525783;28;20195;-75
2022/09/10 01:18:02;;;;;;;0.65;0.60;;;;;;;;;;12526742;28;20045;-75
2022/09/10 01:24:11;;;;;;;0.65;0.50;;;;;;;;;;12509879;28;20040;-74
2022/09/10 01:30:19;;;;;;;0.60;0.60;;;;;;;;;;12526283;28;20040;-75
2022/09/10 01:36:25;;;;;;;1.15;0.60;;;;;;;;;;12509561;28;20033;-74
2022/09/10 01:42:28;;;;;;;0.45;0.45;;;;;;;;;;12526289;28;20044;-75
2022/09/10 01:48:30;;;;;;;1.05;0.80;;;;;;;;;;12531963;28;20041;-75
2022/09/10 01:54:56;;;;;;;0.88;0.88;;;;;;;;;;12535294;28;20029;-74
2022/09/10 02:01:17;;;;;;;0.80;0.80;;;;;;;;;;12522898;28;20053;-75
2022/09/10 02:07:21;;;;;;;0.90;0.77;;;;;;;;;;12534726;28;20028;-75
2022/09/10 02:13:25;;;;;;;0.77;0.40;;;;;;;;;;12534087;28;20059;-75
2022/09/10 02:20:03;;;;;;;3.15;1.08;;;;;;;;;;12540740;28;20052;-75
2022/09/10 02:26:05;;;;;;;0.57;0.57;;;;;;;;;;12517459;28;20203;-75
2022/09/10 02:32:08;;;;;;;0.90;0.80;;;;;;;;;;12552088;28;20187;-75
2022/09/10 02:38:10;;;;;;;0.70;0.70;;;;;;;;;;12533096;28;20050;-75
2022/09/10 02:44:13;;;;;;;0.75;0.75;;;;;;;;;;12532868;28;20047;-74
2022/09/10 02:50:15;;;;;;;0.55;0.55;;;;;;;;;;12550782;28;20036;-75
2022/09/10 02:56:18;;;;;;;1.08;0.60;;;;;;;;;;12531656;28;20464;-74
2022/09/10 03:02:20;;;;;;;1.85;0.85;;;;;;;;;;12549826;28;20033;-74
2022/09/10 03:08:22;;;;;;;2.33;1.50;;;;;;;;;;12531551;28;20041;-75
2022/09/10 03:14:24;;;;;;;1.60;1.50;;;;;;;;;;12531798;28;20049;-74
2022/09/10 03:20:26;;;;;;;1.20;1.10;;;;;;;;;;12531556;28;20045;-75
2022/09/10 03:26:28;;;;;;;1.08;1.08;;;;;;;;;;12531018;28;20029;-74
2022/09/10 03:32:31;;;;;;;1.58;1.00;;;;;;;;;;12530911;28;20028;-75
2022/09/10 03:38:33;;;;;;;1.33;1.10;;;;;;;;;;12530097;28;20033;-75
2022/09/10 03:44:34;;;;;;;1.08;1.05;;;;;;;;;;12547962;28;20037;-74
2022/09/10 03:50:36;;;;;;;0.82;0.82;;;;;;;;;;12530173;28;20044;-74
2022/09/10 03:56:38;;;;;;;2.33;1.30;;;;;;;;;;12513771;28;20390;-74
2022/09/10 04:02:41;;;;;;;;;;;;;;;;;;12547575;28;20043;-75
2022/09/10 04:08:48;;;;;;;2.92;1.38;;;;;;;;;;12527663;28;19943;-74
2022/09/10 04:14:50;;;;;;;1.73;1.60;;;;;;;;;;12529042;28;20487;-74
2022/09/10 04:20:52;;;;;;;1.52;1.23;;;;;;;;;;12528281;28;20044;-73
2022/09/10 04:26:55;;;;;;;1.25;1.20;;;;;;;;;;12511751;28;20529;-75
2022/09/10 04:32:57;;;;;;;1.63;1.52;;;;;;;;;;12511229;28;20040;-75
2022/09/10 04:39:00;;;;;;;;;;;;;;;;;;12528319;28;20048;-75
2022/09/10 04:45:02;;;;;;;1.87;1.77;;;;;;;;;;12527523;28;19913;-74
2022/09/10 04:51:05;;;;;;;;;;;;;;;;;;12511424;28;20029;-74
2022/09/10 04:57:13;;;;;;;1.67;1.23;;;;;;;;;;12544649;28;19917;-75
2022/09/10 05:03:15;;;;;;;1.83;1.60;;;;;;;;;;12510660;28;20037;-75
2022/09/10 05:09:20;;;;;;;1.00;1.00;;;;;;;;;;12526912;28;20037;-75
2022/09/10 05:15:21;;;;;;;1.88;0.95;;;;;;;;;;12526842;28;20486;-75
2022/09/10 05:21:23;;;;;;;1.00;1.00;;;;;;;;;;12525905;28;20052;-74
2022/09/10 05:27:28;;;;;;;1.60;1.50;;;;;;;;;;12526205;28;20422;-74
2022/09/10 05:33:30;;;;;;;;;;;;;;;;;;12509362;28;20033;-75
2022/09/10 05:39:33;;;;;;;0.98;0.85;;;;;;;;;;12509022;28;19917;-75
2022/09/10 05:45:34;;;;;;;1.73;0.90;;;;;;;;;;12525829;28;20033;-75
2022/09/10 05:51:36;;;;;;;0.80;0.80;;;;;;;;;;12542913;28;20045;-75
2022/09/10 05:57:41;;;;;;;2.58;0.70;;;;;;;;;;12525374;28;20041;-75
2022/09/10 06:03:47;;;;;;;0.75;0.38;;;;;;;;;;12509208;28;20032;-75
2022/09/10 06:09:50;;;;;;;0.75;0.60;;;;;;;;;;12525040;28;20056;-75
2022/09/10 06:16:11;;;;;;;0.77;0.70;;;;;;;;;;12525172;28;20037;-75
2022/09/10 06:22:14;;;;;;;0.80;0.80;;;;;;;;;;12508639;28;20041;-75
2022/09/10 06:28:21;;;;;;;0.90;0.70;;;;;;;;;;12525114;28;20041;-75
2022/09/10 06:34:23;;;;;;;2.45;0.60;;;;;;;;;;12513966;28;20040;-74
2022/09/10 06:40:26;;;;;;;1.38;0.80;;;;;;;;;;12532952;28;20052;-74
2022/09/10 06:46:29;;;;;;;1.75;0.90;;;;;;;;;;12550164;28;20044;-74
2022/09/10 06:52:38;;;;;;;0.43;0.43;;;;;;;;;;12532685;28;20052;-74
2022/09/10 06:58:44;;;;;;;0.70;0.70;;;;;;;;;;12532033;28;20043;-74
2022/09/10 07:04:46;;;;;;;1.02;0.70;;;;;;;;;;12532282;28;20033;-74
2022/09/10 07:10:48;;;;;;;0.45;0.45;;;;;;;;;;12531745;28;20059;-75
2022/09/10 07:16:50;;;;;;;0.40;0.40;;;;;;;;;;12531853;28;20044;-75
2022/09/10 07:22:55;;;;;;;0.50;0.50;;;;;;;;;;12531114;28;20033;-75
2022/09/10 07:28:57;;;;;;;0.47;0.35;;;;;;;;;;12531109;28;20040;-74
2022/09/10 07:35:00;;;;;;;1.33;0.50;;;;;;;;;;12530576;28;20033;-74
2022/09/10 07:41:05;;;;;;;0.57;0.30;;;;;;;;;;12514222;28;20072;-75
2022/09/10 07:47:07;;;;;;;0.65;0.30;;;;;;;;;;12513302;28;20045;-74
2022/09/10 07:53:10;;;;;;;0.85;0.47;;;;;;;;;;12529845;28;20037;-75
2022/09/10 07:59:12;;;;;;;0.35;0.35;;;;;;;;;;12513247;28;20136;-74
2022/09/10 08:05:27;;;;;;;0.45;0.40;;;;;;;;;;12529349;28;20033;-74
2022/09/10 08:11:31;;;;;;;0.30;0.20;;;;;;;;;;12528952;28;20067;-74
2022/09/10 08:17:35;;;;;;;0.70;0.40;;;;;;;;;;12529332;28;20411;-74
2022/09/10 08:23:39;;;;;;;0.30;0.30;;;;;;;;;;12528695;28;20033;-75
2022/09/10 08:29:42;;;;;;;0.45;0.30;;;;;;;;;;12511780;28;20044;-75
2022/09/10 08:35:45;;;;;;;0.40;0.30;;;;;;;;;;12511828;28;20037;-75
2022/09/10 08:41:55;;;;;;;0.43;0.30;;;;;;;;;;12527872;28;20056;-74
2022/09/10 08:48:05;;;;;;;0.20;0.20;;;;;;;;;;12527195;28;20033;-74
2022/09/10 08:54:17;;;;;;;0.20;0.20;;;;;;;;;;12526895;28;20052;-75
2022/09/10 09:00:21;;;;;;;0.60;0.30;;;;;;;;;;12510777;28;20383;-75
2022/09/10 09:06:35;;;;;;;0.55;0.20;;;;;;;;;;12527012;28;20040;-75
2022/09/10 09:12:44;;;;;;;0.10;0.10;;;;;;;;;;12526445;28;20056;-75
2022/09/10 09:18:56;;;;;;;0.20;0.20;;;;;;;;;;12525516;28;20407;-75
2022/09/10 09:25:02;;;;;;;0.53;0.20;;;;;;;;;;12525683;28;20395;-74
2022/09/10 09:31:10;;;;;;;0.10;0.10;;;;;;;;;;12543935;28;20048;-74
2022/09/10 09:37:22;;;;;;;0.60;0.30;;;;;;;;;;12525874;28;20041;-74
2022/09/10 09:43:32;;;;;;;0.40;0.20;;;;;;;;;;12544903;28;20372;-74
2022/09/10 09:49:34;;;;;;;0.30;0.17;;;;;;;;;;12526060;28;20395;-73
2022/09/10 09:55:43;;;;;;;0.20;0.17;;;;;;;;;;12525614;28;20036;-75
2022/09/10 10:01:45;;;;;;;0.40;0.20;;;;;;;;;;12542979;28;20430;-75
2022/09/10 10:07:48;;;;;;;0.47;0.28;;;;;;;;;;12511741;28;20029;-74
2022/09/10 10:13:53;;;;;;;0.50;0.50;;;;;;;;;;12553060;28;20057;-74
2022/09/10 10:19:59;;;;;;;0.22;0.20;;;;;;;;;;12534488;28;20402;-73
2022/09/10 10:26:29;;;;;;;0.20;0.20;;;;;;;;;;12533874;28;20043;-74
2022/09/10 10:33:00;;;;;;;0.22;0.10;;;;;;;;;;12515118;28;20041;-74
2022/09/10 10:39:09;;;;;;;0.73;0.10;;;;;;;;;;12530678;28;20064;-74
2022/09/10 10:45:14;;;;;;;0.30;0.10;;;;;;;;;;12533349;28;20314;-74
2022/09/10 10:51:38;;;;;;;0.50;0.30;;;;;;;;;;12532931;28;20029;-73
2022/09/10 10:57:43;;;;;;;0.30;0.20;;;;;;;;;;12550884;28;20045;-73
2022/09/10 11:03:59;;;;;;;0.10;0.05;;;;;;;;;;12550214;28;20390;-74
2022/09/10 11:10:03;;;;;;;1.00;0.20;;;;;;;;;;12549227;28;20054;-74
2022/09/10 11:16:06;;;;;;;0.45;0.20;;;;;;;;;;12531541;28;20056;-74
2022/09/10 11:22:18;;;;;;;0.20;0.10;;;;;;;;;;12548422;28;20396;-74
2022/09/10 11:28:24;;;;;;;0.25;0.10;;;;;;;;;;12531407;28;20032;-74
2022/09/10 11:34:39;;;;;;;0.32;0.10;;;;;;;;;;12548645;28;20044;-74
2022/09/10 11:40:51;;;;;;;0.20;0.10;;;;;;;;;;12549498;28;20044;-74
2022/09/10 11:46:52;;;;;;;0.20;0.17;;;;;;;;;;12548215;28;20391;-74
2022/09/10 11:52:57;;;;;;;0.63;0.10;;;;;;;;;;12530303;28;20032;-74
2022/09/10 11:59:11;;;;;;;0.20;0.20;;;;;;;;;;12529766;28;20041;-74
2022/09/10 12:05:25;;;;;;;0.52;0.15;;;;;;;;;;12529988;28;20036;-74
2022/09/10 12:11:39;;;;;;;0.43;0.10;;;;;;;;;;12512645;28;20049;-74
2022/09/10 12:17:43;;;;;;;0.30;0.05;;;;;;;;;;12528793;28;20064;-74
2022/09/10 12:23:44;;;;;;;0.38;0.10;;;;;;;;;;12546413;28;20382;-74
2022/09/10 12:29:48;;;;;;;0.40;0.20;;;;;;;;;;12545836;28;20032;-74
2022/09/10 12:35:50;;;;;;;0.10;0.10;;;;;;;;;;12546260;28;20039;-74
2022/09/10 12:41:54;;;;;;;0.30;0.00;;;;;;;;;;12528162;28;20048;-74
2022/09/10 12:47:56;;;;;;;0.30;0.15;;;;;;;;;;12527604;28;20037;-74
2022/09/10 12:54:04;;;;;;;0.10;0.10;;;;;;;;;;12544851;28;20032;-74
2022/09/10 13:00:11;;;;;;;0.50;0.10;;;;;;;;;;12544409;28;20059;-74
2022/09/10 13:06:14;;;;;;;0.10;0.10;;;;;;;;;;12526701;28;20043;-74
2022/09/10 13:12:17;;;;;;;0.38;0.10;;;;;;;;;;12526562;28;20049;-74
2022/09/10 13:18:25;;;;;;;0.20;0.20;;;;;;;;;;12526175;28;20044;-74
2022/09/10 13:24:33;;;;;;;0.90;0.10;;;;;;;;;;12526034;28;20033;-74
2022/09/10 13:30:35;;;;;;;0.20;0.10;;;;;;;;;;12509607;28;20044;-74
2022/09/10 13:36:55;;;;;;;0.10;0.10;;;;;;;;;;12526343;28;20037;-74
2022/09/10 13:43:29;;;;;;;0.10;0.10;;;;;;;;;;12550416;28;20048;-74
2022/09/10 13:49:37;;;;;;;0.00;0.00;;;;;;;;;;12499750;28;20052;-74
2022/09/10 13:55:40;;;;;;;0.20;0.10;;;;;;;;;;12535577;28;20029;-75
2022/09/10 14:01:52;;;;;;;0.32;0.20;;;;;;;;;;12552932;28;20071;-75
2022/09/10 14:08:05;;;;;;;1.08;0.10;;;;;;;;;;12534578;28;20390;-75
2022/09/10 14:14:15;;;;;;;0.30;0.10;;;;;;;;;;12552459;28;20167;-73
2022/09/10 14:20:28;;;;;;;0.35;0.15;;;;;;;;;;12535323;28;20378;-74
2022/09/10 14:26:32;;;;;;;0.25;0.10;;;;;;;;;;12551822;28;20487;-74
2022/09/10 14:32:36;;;;;;;0.20;0.20;;;;;;;;;;12551442;28;20033;-74
2022/09/10 14:38:39;;;;;;;0.30;0.20;;;;;;;;;;12550839;28;20056;-74
2022/09/10 14:44:42;;;;;;;0.68;0.17;;;;;;;;;;12533315;28;20504;-74
2022/09/10 14:50:44;;;;;;;0.22;0.15;;;;;;;;;;12550571;28;20032;-75
2022/09/10 14:56:47;;;;;;;0.20;0.13;;;;;;;;;;12549636;28;20029;-75
2022/09/10 15:02:50;;;;;;;0.40;0.10;;;;;;;;;;12550113;28;20414;-75
2022/09/10 15:08:54;;;;;;;0.10;0.10;;;;;;;;;;12516294;28;20056;-74
2022/09/10 15:14:57;;;;;;;0.20;0.20;;;;;;;;;;12531950;28;20517;-75
2022/09/10 15:21:03;;;;;;;0.10;0.10;;;;;;;;;;12549314;28;20041;-75
2022/09/10 15:27:07;;;;;;;0.30;0.20;;;;;;;;;;12548694;28;20047;-75
2022/09/10 15:33:13;;;;;;;0.75;0.30;;;;;;;;;;12531577;28;20033;-75
2022/09/10 15:39:15;;;;;;;1.00;0.10;;;;;;;;;;12531032;28;20049;-75
2022/09/10 15:45:16;;;;;;;0.20;0.20;;;;;;;;;;12547963;28;20482;-75
2022/09/10 15:51:22;;;;;;;0.70;0.20;;;;;;;;;;12547675;28;20029;-75
2022/09/10 15:57:25;;;;;;;0.70;0.10;;;;;;;;;;12530035;28;20053;-75
2022/09/10 16:03:26;;;;;;;0.20;0.20;;;;;;;;;;12529728;28;20497;-75
2022/09/10 16:09:28;;;;;;;0.10;0.10;;;;;;;;;;12529013;28;20053;-75
2022/09/10 16:15:30;;;;;;;0.20;0.20;;;;;;;;;;12546605;28;20474;-75
2022/09/10 16:21:33;;;;;;;0.25;0.10;;;;;;;;;;12528475;28;20406;-75
2022/09/10 16:27:35;;;;;;;0.30;0.10;;;;;;;;;;12512005;28;20367;-75
2022/09/10 16:33:36;;;;;;;0.22;0.10;;;;;;;;;;12546219;28;20029;-75
2022/09/10 16:39:39;;;;;;;0.28;0.10;;;;;;;;;;12545816;28;20494;-75
2022/09/10 16:45:48;;;;;;;0.10;0.10;;;;;;;;;;12525433;28;20048;-75
2022/09/10 16:51:50;;;;;;;1.80;0.20;;;;;;;;;;12542919;28;20037;-75
2022/09/10 16:57:52;;;;;;;1.15;0.40;;;;;;;;;;12524666;28;20049;-75
2022/09/10 17:03:53;;;;;;;0.75;0.30;;;;;;;;;;12545061;28;20486;-76
2022/09/10 17:09:55;;;;;;;0.30;0.20;;;;;;;;;;12544178;28;20056;-74
2022/09/10 17:16:20;;;;;;;1.15;0.70;;;;;;;;;;12543615;28;20411;-76
2022/09/10 17:22:22;;;;;;;0.50;0.30;;;;;;;;;;12526058;28;20060;-75
2022/09/10 17:28:23;;;;;;;;;;;;;;;;;;12526713;28;20033;-75
2022/09/10 17:34:26;;;;;;;0.73;0.20;;;;;;;;;;12543788;28;19909;-75
2022/09/10 17:40:28;;;;;;;0.77;0.20;;;;;;;;;;12544393;28;20491;-75
2022/09/10 17:46:30;;;;;;;0.73;0.10;;;;;;;;;;12526063;28;20037;-75
2022/09/10 17:52:32;;;;;;;0.20;0.20;;;;;;;;;;12525566;28;20076;-75
2022/09/10 17:58:34;;;;;;;0.38;0.28;;;;;;;;;;12543256;28;20517;-75
2022/09/10 18:04:35;;;;;;;;;;;;;;;;;;12543373;28;20056;-75
2022/09/10 18:10:37;;;;;;;0.93;0.20;;;;;;;;;;12509031;28;20000;-75
2022/09/10 18:16:39;;;;;;;0.22;0.20;;;;;;;;;;12542778;28;20040;-75
2022/09/10 18:22:41;;;;;;;0.60;0.30;;;;;;;;;;12542604;28;20316;-75
2022/09/10 18:28:51;;;;;;;0.93;0.45;;;;;;;;;;12545676;28;20036;-74
2022/09/10 18:34:52;;;;;;;0.30;0.30;;;;;;;;;;12517533;28;20033;-74
2022/09/10 18:40:56;;;;;;;0.38;0.20;;;;;;;;;;12517788;28;20037;-75
2022/09/10 18:46:58;;;;;;;1.00;0.30;;;;;;;;;;12533404;28;20045;-75
2022/09/10 18:53:00;;;;;;;0.28;0.28;;;;;;;;;;12550905;28;20390;-75
2022/09/10 18:59:05;;;;;;;0.20;0.20;;;;;;;;;;12516148;28;20056;-75
2022/09/10 19:05:08;;;;;;;1.10;0.40;;;;;;;;;;12550218;28;20426;-75
2022/09/10 19:11:12;;;;;;;0.43;0.40;;;;;;;;;;12515521;28;20053;-75
2022/09/10 19:17:14;;;;;;;0.30;0.30;;;;;;;;;;12549575;28;20040;-75
2022/09/10 19:23:16;;;;;;;0.98;0.40;;;;;;;;;;12548796;28;20041;-75
2022/09/10 19:29:18;;;;;;;0.30;0.30;;;;;;;;;;12531029;28;20029;-75
2022/09/10 19:35:20;;;;;;;0.45;0.32;;;;;;;;;;12548824;28;20108;-75
2022/09/10 19:41:22;;;;;;;0.47;0.40;;;;;;;;;;12530519;28;20048;-76
2022/09/10 19:47:24;;;;;;;0.40;0.40;;;;;;;;;;12548650;28;20037;-75
2022/09/10 19:53:26;;;;;;;0.43;0.40;;;;;;;;;;12529937;28;20364;-74
2022/09/10 19:59:28;;;;;;;0.43;0.43;;;;;;;;;;12548102;28;20040;-74
2022/09/10 20:05:32;;;;;;;0.77;0.50;;;;;;;;;;12547355;28;20032;-74
2022/09/10 20:11:34;;;;;;;0.30;0.30;;;;;;;;;;12529767;28;20059;-74
2022/09/10 20:17:38;;;;;;;1.58;0.30;;;;;;;;;;12546711;28;20076;-75
2022/09/10 20:23:41;;;;;;;0.65;0.60;;;;;;;;;;12546162;28;20398;-75
2022/09/10 20:29:42;;;;;;;0.98;0.63;;;;;;;;;;12546190;28;20043;-75
2022/09/10 20:35:44;;;;;;;0.47;0.40;;;;;;;;;;12546634;28;20036;-75
2022/09/10 20:41:46;;;;;;;0.57;0.50;;;;;;;;;;12511695;28;20048;-75
2022/09/10 20:47:48;;;;;;;;;;;;;;;;;;12528196;28;20048;-75
2022/09/10 20:53:49;;;;;;;0.87;0.50;;;;;;;;;;12510336;28;19908;-75
2022/09/10 20:59:51;;;;;;;0.43;0.30;;;;;;;;;;12511101;28;20045;-75
2022/09/10 21:05:53;;;;;;;0.52;0.38;;;;;;;;;;12544779;28;20036;-75
2022/09/10 21:11:55;;;;;;;0.60;0.40;;;;;;;;;;12526634;28;20037;-75
2022/09/10 21:17:57;;;;;;;2.08;0.50;;;;;;;;;;12526586;28;20048;-75
2022/09/10 21:24:03;;;;;;;0.68;0.50;;;;;;;;;;12544125;28;20033;-75
2022/09/10 21:30:05;;;;;;;0.60;0.43;;;;;;;;;;12544384;28;20108;-75
2022/09/10 21:36:10;;;;;;;0.70;0.63;;;;;;;;;;12526051;28;20032;-76
2022/09/10 21:42:12;;;;;;;0.70;0.55;;;;;;;;;;12544716;28;20041;-75
2022/09/10 21:48:13;;;;;;;0.82;0.80;;;;;;;;;;12509590;28;20040;-75
2022/09/10 21:54:20;;;;;;;0.57;0.57;;;;;;;;;;12543515;28;20490;-75
2022/09/10 22:00:24;;;;;;;0.43;0.43;;;;;;;;;;12525423;28;20473;-74
2022/09/10 22:06:29;;;;;;;0.52;0.50;;;;;;;;;;12552573;28;20033;-74
2022/09/10 22:12:31;;;;;;;0.70;0.60;;;;;;;;;;12552626;28;20056;-74
2022/09/10 22:18:33;;;;;;;4.13;0.65;;;;;;;;;;12518260;28;20049;-74
2022/09/10 22:24:35;;;;;;;0.55;0.40;;;;;;;;;;12552257;28;20044;-74
2022/09/10 22:30:36;;;;;;;0.40;0.40;;;;;;;;;;12533640;28;20040;-74
2022/09/10 22:36:39;;;;;;;0.47;0.30;;;;;;;;;;12534684;28;20414;-74
2022/09/10 22:42:41;;;;;;;0.68;0.30;;;;;;;;;;12551541;28;20040;-74
2022/09/10 22:48:43;;;;;;;0.63;0.40;;;;;;;;;;12533385;28;20048;-74
2022/09/10 22:54:44;;;;;;;0.40;0.30;;;;;;;;;;12532886;28;20517;-75
2022/09/10 23:00:46;;;;;;;;;;;;;;;;;;12532967;28;20045;-74
2022/09/10 23:06:48;;;;;;;0.63;0.50;;;;;;;;;;12532447;28;19910;-76
2022/09/10 23:12:51;;;;;;;1.65;0.30;;;;;;;;;;12549622;28;20037;-75
2022/09/10 23:18:53;;;;;;;0.50;0.40;;;;;;;;;;12531843;28;20446;-74
2022/09/10 23:24:55;;;;;;;0.50;0.40;;;;;;;;;;12549704;28;20040;-75
2022/09/10 23:31:12;;;;;;;0.82;0.50;;;;;;;;;;12531733;28;20040;-75
2022/09/10 23:37:14;;;;;;;1.25;0.55;;;;;;;;;;12530905;28;20033;-74
2022/09/10 23:43:16;;;;;;;1.40;0.65;;;;;;;;;;12549927;28;20036;-74
2022/09/10 23:49:17;;;;;;;10.73;1.80;;;;;;;;;;12530374;28;20033;-75
2022/09/10 23:55:20;;;;;;;6.22;2.13;;;;;;;;;;12514120;28;20506;-75
